createdAt,value
2022-12-11T00:00:08.197Z,58.53
2022-12-11T00:02:34.711Z,48.93
2022-12-11T00:05:02.238Z,40.63
2022-12-11T00:07:28.766Z,59.00
2022-12-11T00:09:55.267Z,50.07
2022-12-11T00:12:21.767Z,67.53
2022-12-11T00:14:48.310Z,43.23
2022-12-11T00:17:14.761Z,64.50
2022-12-11T00:19:41.220Z,55.60
2022-12-11T00:22:08.229Z,49.17
2022-12-11T00:24:34.691Z,57.60
2022-12-11T00:27:01.431Z,40.13
2022-12-11T00:29:28.120Z,37.67
2022-12-11T00:31:54.609Z,36.27
2022-12-11T00:34:21.331Z,44.80
2022-12-11T00:36:48.274Z,42.27
2022-12-11T00:39:14.806Z,40.83
2022-12-11T00:41:41.266Z,31.60
2022-12-11T00:44:07.806Z,30.70
2022-12-11T00:46:34.463Z,30.30
2022-12-11T00:49:02.083Z,29.70
2022-12-11T00:51:29.575Z,31.90
2022-12-11T00:53:56.208Z,31.97
2022-12-11T00:56:23.484Z,24.30
2022-12-11T00:58:50.001Z,27.37
2022-12-11T01:01:17.982Z,28.90
2022-12-11T01:03:45.178Z,27.87
2022-12-11T01:06:13.461Z,26.30
2022-12-11T01:08:39.923Z,26.17
2022-12-11T01:11:09.014Z,28.33
2022-12-11T01:13:35.888Z,24.73
2022-12-11T01:16:06.054Z,24.97
2022-12-11T01:18:32.567Z,26.97
2022-12-11T01:20:59.182Z,25.60
2022-12-11T01:23:25.629Z,29.10
2022-12-11T01:25:52.296Z,25.10
2022-12-11T01:28:18.758Z,23.77
2022-12-11T01:30:45.450Z,24.33
2022-12-11T01:33:12.047Z,21.73
2022-12-11T01:35:38.963Z,27.67
2022-12-11T01:38:05.428Z,24.77
2022-12-11T01:40:32.013Z,26.33
2022-12-11T01:42:58.508Z,23.33
2022-12-11T01:45:27.432Z,25.90
2022-12-11T01:48:00.971Z,24.17
2022-12-11T01:50:28.145Z,21.80
2022-12-11T01:52:54.749Z,28.37
2022-12-11T01:55:21.704Z,21.73
2022-12-11T01:57:49.734Z,23.87
2022-12-11T02:00:16.529Z,21.07
2022-12-11T02:02:43.066Z,22.67
2022-12-11T02:05:10.048Z,22.27
2022-12-11T02:07:48.630Z,25.97
2022-12-11T02:10:15.216Z,24.60
2022-12-11T02:12:48.796Z,20.03
2022-12-11T02:15:24.185Z,20.77
2022-12-11T02:17:53.792Z,19.70
2022-12-11T02:20:23.470Z,19.30
2022-12-11T02:23:02.245Z,21.23
2022-12-11T02:25:28.794Z,22.10
2022-12-11T02:28:15.456Z,20.10
2022-12-11T02:30:42.404Z,17.63
2022-12-11T02:33:10.871Z,21.00
2022-12-11T02:35:40.060Z,21.30
2022-12-11T02:38:15.388Z,18.60
2022-12-11T02:40:42.654Z,20.50
2022-12-11T02:43:11.600Z,21.07
2022-12-11T02:45:39.976Z,18.67
2022-12-11T02:48:07.886Z,16.63
2022-12-11T02:50:36.316Z,18.23
2022-12-11T02:53:03.408Z,17.20
2022-12-11T02:55:31.506Z,15.00
2022-12-11T02:58:07.023Z,16.63
2022-12-11T03:00:33.498Z,14.77
2022-12-11T03:03:00.188Z,13.67
2022-12-11T03:05:28.317Z,14.83
2022-12-11T03:07:54.952Z,14.37
2022-12-11T03:10:21.441Z,15.60
2022-12-11T03:12:56.517Z,19.10
2022-12-11T03:15:24.877Z,15.87
2022-12-11T03:18:07.891Z,16.03
2022-12-11T03:20:37.154Z,17.07
2022-12-11T03:23:18.840Z,13.77
2022-12-11T03:25:54.383Z,14.82
2022-12-11T03:28:24.752Z,15.63
2022-12-11T03:30:53.400Z,13.80
2022-12-11T03:33:23.690Z,17.70
2022-12-11T03:35:54.066Z,14.17
2022-12-11T03:38:52.807Z,15.00
2022-12-11T03:41:20.273Z,14.87
2022-12-11T03:43:47.261Z,14.70
2022-12-11T03:46:15.111Z,18.23
2022-12-11T03:48:43.129Z,14.83
2022-12-11T03:51:09.786Z,18.27
2022-12-11T03:53:37.169Z,13.67
2022-12-11T03:56:05.680Z,16.40
2022-12-11T03:58:32.316Z,19.00
2022-12-11T04:00:58.877Z,17.70
2022-12-11T04:03:25.589Z,14.33
2022-12-11T04:05:53.183Z,11.87
2022-12-11T04:08:23.045Z,15.33
2022-12-11T04:11:09.931Z,15.27
2022-12-11T04:13:36.885Z,21.90
2022-12-11T04:16:04.572Z,19.40
2022-12-11T04:18:49.748Z,15.57
2022-12-11T04:21:39.223Z,16.17
2022-12-11T04:24:15.270Z,18.50
2022-12-11T04:26:42.749Z,19.07
2022-12-11T04:29:09.265Z,17.17
2022-12-11T04:31:35.740Z,19.07
2022-12-11T04:34:02.209Z,17.27
2022-12-11T04:36:28.796Z,15.30
2022-12-11T04:38:55.326Z,15.40
2022-12-11T04:41:21.814Z,19.40
2022-12-11T04:43:48.411Z,16.80
2022-12-11T04:46:16.532Z,18.97
2022-12-11T04:48:43.077Z,17.90
2022-12-11T04:51:09.607Z,18.60
2022-12-11T04:53:36.502Z,19.20
2022-12-11T04:56:06.573Z,18.27
2022-12-11T04:58:33.066Z,17.20
2022-12-11T05:00:59.494Z,18.77
2022-12-11T05:03:26.040Z,18.33
2022-12-11T05:05:53.489Z,18.83
2022-12-11T05:08:20.825Z,19.70
2022-12-11T05:10:58.219Z,19.53
2022-12-11T05:13:25.103Z,18.13
2022-12-11T05:15:51.575Z,18.93
2022-12-11T05:18:18.102Z,19.30
2022-12-11T05:20:44.938Z,20.77
2022-12-11T05:23:11.635Z,19.63
2022-12-11T05:25:38.218Z,19.17
2022-12-11T05:28:04.721Z,23.37
2022-12-11T05:30:32.517Z,19.17
2022-12-11T05:32:59.041Z,20.83
2022-12-11T05:35:25.458Z,17.90
2022-12-11T05:37:51.904Z,22.80
2022-12-11T05:40:18.368Z,18.17
2022-12-11T05:42:44.949Z,19.83
2022-12-11T05:45:11.705Z,19.97
2022-12-11T05:47:38.544Z,19.33
2022-12-11T05:50:05.175Z,20.67
2022-12-11T05:52:31.993Z,21.77
2022-12-11T05:54:58.435Z,17.57
2022-12-11T05:57:24.844Z,18.60
2022-12-11T05:59:51.292Z,21.10
2022-12-11T06:02:18.817Z,20.90
2022-12-11T06:04:45.364Z,17.53
2022-12-11T06:07:11.950Z,17.83
2022-12-11T06:09:38.372Z,17.43
2022-12-11T06:12:07.042Z,17.63
2022-12-11T06:14:34.613Z,15.93
2022-12-11T06:17:01.661Z,18.70
2022-12-11T06:19:32.024Z,20.13
2022-12-11T06:22:03.016Z,18.33
2022-12-11T06:24:29.452Z,18.50
2022-12-11T06:26:55.879Z,22.60
2022-12-11T06:29:22.385Z,20.47
2022-12-11T06:31:48.884Z,20.70
2022-12-11T06:34:15.354Z,21.17
2022-12-11T06:36:41.844Z,23.03
2022-12-11T06:39:08.633Z,21.13
2022-12-11T06:41:35.072Z,20.73
2022-12-11T06:44:01.475Z,23.50
2022-12-11T06:46:27.983Z,19.13
2022-12-11T06:48:54.572Z,19.17
2022-12-11T06:51:22.494Z,19.27
2022-12-11T06:53:53.084Z,19.53
2022-12-11T06:56:19.936Z,19.10
2022-12-11T06:58:46.444Z,18.67
2022-12-11T07:01:14.931Z,19.80
2022-12-11T07:03:41.625Z,19.43
2022-12-11T07:06:08.178Z,19.33
2022-12-11T07:08:35.039Z,17.37
2022-12-11T07:11:05.650Z,21.90
2022-12-11T07:13:32.465Z,20.97
2022-12-11T07:16:00.345Z,18.70
2022-12-11T07:18:26.983Z,21.37
2022-12-11T07:20:53.532Z,21.70
2022-12-11T07:23:19.997Z,18.23
2022-12-11T07:25:46.546Z,18.57
2022-12-11T07:28:16.629Z,16.93
2022-12-11T07:30:43.286Z,19.13
2022-12-11T07:33:09.750Z,17.40
2022-12-11T07:35:36.672Z,20.30
2022-12-11T07:38:03.181Z,19.23
2022-12-11T07:40:29.708Z,18.10
2022-12-11T07:42:56.106Z,17.60
2022-12-11T07:45:22.559Z,15.60
2022-12-11T07:47:52.370Z,17.70
2022-12-11T07:50:19.045Z,16.67
2022-12-11T07:52:45.544Z,16.67
2022-12-11T07:55:12.423Z,16.43
2022-12-11T07:57:39.187Z,17.70
2022-12-11T08:00:05.973Z,21.07
2022-12-11T08:02:37.050Z,21.80
2022-12-11T08:05:04.076Z,19.58
2022-12-11T08:07:30.603Z,23.63
2022-12-11T08:09:57.128Z,17.80
2022-12-11T08:12:23.563Z,23.93
2022-12-11T08:14:49.977Z,24.13
2022-12-11T08:17:16.398Z,21.00
2022-12-11T08:19:42.794Z,19.83
2022-12-11T08:22:09.312Z,21.10
2022-12-11T08:24:35.777Z,19.13
2022-12-11T08:27:02.254Z,19.77
2022-12-11T08:29:28.958Z,19.00
2022-12-11T08:31:55.673Z,20.27
2022-12-11T08:34:22.359Z,20.00
2022-12-11T08:36:49.149Z,22.37
2022-12-11T08:39:15.726Z,18.67
2022-12-11T08:41:42.180Z,19.33
2022-12-11T09:12:08.716Z,18.37
2022-12-11T09:14:35.748Z,19.73
2022-12-11T09:17:03.773Z,18.53
2022-12-11T09:19:32.422Z,19.33
2022-12-11T09:21:59.405Z,17.30
2022-12-11T09:24:25.961Z,14.43
2022-12-11T09:26:52.404Z,16.73
2022-12-11T09:29:19.101Z,14.33
2022-12-11T09:31:46.584Z,16.70
2022-12-11T09:34:13.673Z,15.47
2022-12-11T09:36:41.183Z,13.37
2022-12-11T09:39:08.712Z,13.50
2022-12-11T09:41:37.093Z,16.00
2022-12-11T09:44:16.504Z,15.17
2022-12-11T09:46:43.593Z,13.53
2022-12-11T09:49:16.641Z,15.67
2022-12-11T09:51:47.793Z,15.43
2022-12-11T09:54:14.929Z,17.05
2022-12-11T09:56:59.034Z,14.50
2022-12-11T09:59:31.807Z,13.23
2022-12-11T10:02:17.316Z,13.87
2022-12-11T10:04:46.797Z,19.20
2022-12-11T10:07:18.050Z,12.83
2022-12-11T10:09:48.644Z,15.75
2022-12-11T10:12:21.460Z,14.07
2022-12-11T10:14:54.447Z,13.23
2022-12-11T10:17:23.504Z,13.27
2022-12-11T10:19:50.198Z,14.23
2022-12-11T10:22:29.997Z,16.63
2022-12-11T10:25:10.840Z,13.00
2022-12-11T10:27:39.345Z,13.57
2022-12-11T10:45:41.803Z,13.60
2022-12-11T10:48:13.311Z,11.77
2022-12-11T10:50:48.918Z,13.02
2022-12-11T10:53:25.583Z,12.70
2022-12-11T10:55:52.696Z,15.57
2022-12-11T10:58:24.393Z,12.67
2022-12-11T11:01:07.563Z,15.55
2022-12-11T11:03:36.288Z,15.70
2022-12-11T11:06:04.621Z,16.87
2022-12-11T11:08:38.960Z,17.40
2022-12-11T11:11:20.278Z,13.57
2022-12-11T11:13:50.818Z,16.02
2022-12-11T11:16:23.535Z,16.30
2022-12-11T11:18:57.780Z,17.67
2022-12-11T11:21:25.936Z,17.97
2022-12-11T11:23:55.571Z,18.00
2022-12-11T11:26:34.304Z,17.73
2022-12-11T11:29:27.822Z,19.93
2022-12-11T11:34:31.289Z,18.55
2022-12-11T11:37:01.110Z,15.63
2022-12-11T11:39:32.616Z,15.23
2022-12-11T11:42:03.627Z,19.02
2022-12-11T11:44:50.239Z,19.55
2022-12-11T11:47:23.268Z,18.13
2022-12-11T11:50:04.636Z,18.60
2022-12-11T11:55:29.939Z,19.00
2022-12-11T11:58:06.233Z,19.70
2022-12-11T12:00:34.251Z,18.23
2022-12-11T12:03:03.636Z,19.17
2022-12-11T12:05:45.200Z,19.63
2022-12-11T12:08:14.818Z,17.83
2022-12-11T12:10:50.317Z,19.50
2022-12-11T12:13:47.574Z,20.37
2022-12-11T12:16:36.295Z,18.03
2022-12-11T12:19:09.188Z,15.83
2022-12-11T12:21:37.257Z,17.67
2022-12-11T12:24:06.962Z,17.67
2022-12-11T12:26:35.531Z,13.70
2022-12-11T12:29:02.350Z,15.67
2022-12-11T12:31:31.934Z,15.17
2022-12-11T12:33:58.684Z,18.43
2022-12-11T12:36:45.232Z,15.97
2022-12-11T12:39:20.898Z,17.57
2022-12-11T12:42:07.442Z,18.40
2022-12-11T12:44:44.023Z,16.87
2022-12-11T12:47:15.416Z,16.63
2022-12-11T12:49:43.551Z,15.25
2022-12-11T12:52:18.646Z,18.73
2022-12-11T12:55:09.709Z,16.87
2022-12-11T12:57:37.239Z,19.17
2022-12-11T13:00:11.056Z,19.17
2022-12-11T13:02:52.211Z,22.43
2022-12-11T13:05:28.223Z,18.80
2022-12-11T13:07:57.606Z,19.90
2022-12-11T13:10:27.552Z,20.37
2022-12-11T13:12:55.366Z,19.83
2022-12-11T13:15:32.249Z,19.50
2022-12-11T13:17:59.856Z,21.97
2022-12-11T13:20:28.788Z,18.10
2022-12-11T13:23:08.673Z,19.13
2022-12-11T13:25:54.921Z,20.83
2022-12-11T13:28:26.580Z,21.70
2022-12-11T13:31:00.457Z,20.27
2022-12-11T13:33:30.167Z,20.13
2022-12-11T13:36:24.158Z,24.00
2022-12-11T13:38:53.993Z,21.70
2022-12-11T13:41:23.353Z,20.60
2022-12-11T13:43:51.018Z,22.87
2022-12-11T13:46:47.143Z,20.90
2022-12-11T13:49:57.245Z,25.87
2022-12-11T13:52:33.327Z,25.27
2022-12-11T13:55:01.549Z,26.87
2022-12-11T13:57:29.498Z,26.37
2022-12-11T14:00:02.064Z,30.80
2022-12-11T14:02:30.510Z,27.53
2022-12-11T14:05:00.262Z,27.00
2022-12-11T14:13:23.654Z,25.10
2022-12-11T14:15:52.461Z,26.47
2022-12-11T14:38:23.564Z,26.92
2022-12-11T14:47:14.156Z,22.57
2022-12-11T14:49:45.744Z,24.07
2022-12-11T14:52:20.723Z,28.80
2022-12-11T14:54:55.636Z,22.90
2022-12-11T14:57:33.048Z,24.07
2022-12-11T15:00:00.675Z,29.63
2022-12-11T15:02:31.306Z,29.33
2022-12-11T15:05:15.172Z,29.50
2022-12-11T15:07:44.011Z,24.30
2022-12-11T15:10:24.414Z,28.50
2022-12-11T15:12:51.130Z,26.57
2022-12-11T15:15:18.289Z,26.07
2022-12-11T15:17:51.136Z,27.67
2022-12-11T15:20:34.448Z,25.87
2022-12-11T15:23:02.746Z,20.75
2022-12-11T15:25:30.585Z,23.27
2022-12-11T15:27:58.338Z,24.57
2022-12-11T15:30:33.363Z,26.47
2022-12-11T15:33:06.269Z,23.10
2022-12-11T15:35:33.055Z,28.33
2022-12-11T15:37:59.861Z,31.77
2022-12-11T15:40:26.875Z,32.27
2022-12-11T15:42:55.201Z,27.70
2022-12-11T15:45:23.996Z,29.33
2022-12-11T15:47:51.603Z,36.07
2022-12-11T15:50:19.878Z,29.57
2022-12-11T15:52:46.884Z,33.70
2022-12-11T15:55:15.377Z,36.67
2022-12-11T15:57:45.651Z,34.70
2022-12-11T16:32:10.249Z,41.03
2022-12-11T16:34:38.440Z,43.23
2022-12-11T16:37:06.056Z,39.03
2022-12-11T16:39:34.680Z,38.13
2022-12-11T16:42:07.643Z,41.87
2022-12-11T16:44:47.432Z,34.07
2022-12-11T16:47:20.906Z,31.13
2022-12-11T16:49:47.840Z,35.03
2022-12-11T16:52:20.474Z,37.13
2022-12-11T16:54:48.966Z,28.77
2022-12-11T16:57:17.102Z,35.70
2022-12-11T16:59:47.696Z,32.07
2022-12-11T17:02:15.211Z,28.40
2022-12-11T17:04:47.001Z,33.37
2022-12-11T17:07:16.923Z,30.90
2022-12-11T17:10:06.132Z,28.03
2022-12-11T17:12:33.097Z,27.03
2022-12-11T17:15:05.722Z,31.77
2022-12-11T17:17:32.842Z,32.27
2022-12-11T17:20:00.338Z,29.20
2022-12-11T17:22:28.104Z,26.47
2022-12-11T17:24:56.282Z,31.63
2022-12-11T17:27:27.335Z,34.97
2022-12-11T17:29:54.731Z,32.70
2022-12-11T17:32:25.495Z,33.67
2022-12-11T17:34:59.054Z,27.90
2022-12-11T17:37:28.918Z,27.27
2022-12-11T17:39:55.784Z,31.80
2022-12-11T17:42:29.066Z,29.90
2022-12-11T17:44:56.303Z,37.37
2022-12-11T17:47:23.789Z,29.20
2022-12-11T17:49:52.887Z,32.60
2022-12-11T17:52:19.851Z,30.07
2022-12-11T17:54:50.362Z,30.60
2022-12-11T17:57:17.355Z,27.80
2022-12-11T17:59:44.011Z,31.57
2022-12-11T18:02:10.892Z,34.53
2022-12-11T18:04:39.212Z,41.33
2022-12-11T18:07:06.960Z,36.33
2022-12-11T18:09:33.987Z,31.17
2022-12-11T18:12:00.853Z,35.30
2022-12-11T18:14:27.800Z,38.00
2022-12-11T18:16:55.063Z,30.27
2022-12-11T18:19:23.117Z,32.10
2022-12-11T18:21:50.918Z,38.70
2022-12-11T18:24:18.554Z,39.30
2022-12-11T18:26:48.070Z,37.00
2022-12-11T18:29:15.588Z,43.17
2022-12-11T18:31:43.544Z,39.93
2022-12-11T18:34:12.800Z,34.50
2022-12-11T18:36:41.314Z,32.93
2022-12-11T18:39:09.446Z,39.03
2022-12-11T18:41:36.371Z,35.63
2022-12-11T18:44:09.715Z,36.07
2022-12-11T18:46:41.067Z,35.57
2022-12-11T18:49:10.473Z,34.30
2022-12-11T18:51:43.977Z,31.57
2022-12-11T18:54:22.105Z,38.73
2022-12-11T18:56:49.800Z,32.03
2022-12-11T18:59:17.217Z,32.90
2022-12-11T19:01:44.384Z,35.83
2022-12-11T19:04:11.503Z,36.40
2022-12-11T19:06:38.383Z,43.40
2022-12-11T19:09:07.122Z,38.27
2022-12-11T19:11:35.623Z,42.37
2022-12-11T19:14:05.721Z,36.70
2022-12-11T19:16:34.471Z,40.70
2022-12-11T19:19:03.309Z,39.93
2022-12-11T19:21:31.062Z,33.50
2022-12-11T19:24:01.850Z,37.10
2022-12-11T19:26:28.758Z,41.17
2022-12-11T19:29:00.449Z,43.10
2022-12-11T19:31:32.378Z,31.33
2022-12-11T19:34:03.254Z,34.60
2022-12-11T19:36:31.506Z,38.23
2022-12-11T19:39:12.964Z,35.33
2022-12-11T19:41:41.564Z,31.92
2022-12-11T19:44:08.762Z,36.07
2022-12-11T19:46:36.490Z,33.90
2022-12-11T19:49:03.313Z,36.33
2022-12-11T19:51:31.661Z,40.67
2022-12-11T19:54:04.077Z,36.30
2022-12-11T19:56:31.538Z,38.23
2022-12-11T19:59:02.768Z,40.00
2022-12-11T20:01:33.193Z,37.90
2022-12-11T20:04:01.504Z,39.13
2022-12-11T20:06:38.063Z,41.10
2022-12-11T20:09:08.154Z,35.47
2022-12-11T20:11:42.423Z,32.23
2022-12-11T20:14:14.602Z,29.20
2022-12-11T20:19:31.092Z,31.27
2022-12-11T20:21:58.583Z,34.63
2022-12-11T20:24:25.297Z,28.20
2022-12-11T20:26:53.905Z,28.10
2022-12-11T20:29:20.677Z,29.17
2022-12-11T20:31:50.056Z,26.47
2022-12-11T20:34:17.103Z,26.27
2022-12-11T20:36:44.702Z,30.27
2022-12-11T20:39:12.851Z,29.83
2022-12-11T20:41:40.211Z,26.17
2022-12-11T20:44:06.946Z,28.27
2022-12-11T20:46:33.964Z,27.43
2022-12-11T20:49:02.003Z,24.87
2022-12-11T20:51:31.024Z,22.50
2022-12-11T20:53:59.526Z,25.20
2022-12-11T20:56:33.300Z,22.20
2022-12-11T20:59:01.562Z,22.37
2022-12-11T21:01:30.254Z,24.10
2022-12-11T21:03:57.086Z,23.73
2022-12-11T21:06:28.953Z,23.40
2022-12-11T21:11:22.447Z,23.07
2022-12-11T21:13:50.830Z,22.27
2022-12-11T21:16:18.093Z,22.43
2022-12-11T21:18:46.588Z,23.93
2022-12-11T21:21:15.560Z,23.97
2022-12-11T21:23:42.179Z,22.70
2022-12-11T21:26:08.938Z,19.27
2022-12-11T21:28:36.662Z,25.43
2022-12-11T21:31:09.717Z,25.47
2022-12-11T21:33:36.652Z,26.40
2022-12-11T21:36:31.872Z,25.07
2022-12-11T21:39:19.672Z,25.47
2022-12-11T21:41:46.372Z,28.90
2022-12-11T21:45:25.899Z,28.37
2022-12-11T21:47:01.205Z,28.80
2022-12-11T21:49:27.879Z,28.70
2022-12-11T21:51:54.574Z,30.93
2022-12-11T21:54:21.378Z,33.97
2022-12-11T21:56:48.284Z,32.50
2022-12-11T21:59:15.540Z,32.70
2022-12-11T22:01:46.087Z,28.43
2022-12-11T22:04:16.075Z,31.73
2022-12-11T22:07:00.827Z,33.23
2022-12-11T22:09:27.439Z,35.93
2022-12-11T22:11:58.392Z,33.47
2022-12-11T22:14:25.924Z,28.75
2022-12-11T22:16:52.579Z,37.93
2022-12-11T22:19:19.340Z,31.50
2022-12-11T22:21:46.009Z,31.60
2022-12-11T22:24:12.841Z,34.03
2022-12-11T22:26:39.414Z,29.73
2022-12-11T22:29:06.001Z,30.47
2022-12-11T22:31:32.781Z,32.20
2022-12-11T22:33:59.591Z,32.43
2022-12-11T22:36:27.337Z,35.63
2022-12-11T22:38:54.516Z,32.73
2022-12-11T22:41:28.559Z,36.20
2022-12-11T22:43:55.673Z,36.10
2022-12-11T22:46:24.255Z,34.43
2022-12-11T22:48:51.046Z,40.80
2022-12-11T22:51:17.919Z,39.63
2022-12-11T22:53:44.606Z,38.47
2022-12-11T22:56:12.583Z,39.33
2022-12-11T22:58:40.112Z,42.00
2022-12-11T23:01:11.531Z,36.13
2022-12-11T23:03:38.293Z,37.55
2022-12-11T23:06:06.185Z,36.93
2022-12-11T23:08:33.335Z,39.23
2022-12-11T23:11:00.070Z,37.40
2022-12-11T23:13:26.700Z,41.40
2022-12-11T23:15:53.271Z,43.77
2022-12-11T23:18:19.946Z,41.63
2022-12-11T23:20:46.594Z,38.47
2022-12-11T23:23:13.170Z,37.57
2022-12-11T23:25:40.269Z,40.40
2022-12-11T23:28:07.539Z,47.37
2022-12-11T23:30:34.241Z,42.57
2022-12-11T23:33:00.955Z,43.30
2022-12-11T23:35:27.742Z,39.40
2022-12-11T23:37:54.392Z,42.80
2022-12-11T23:40:21.209Z,35.47
2022-12-11T23:42:47.929Z,36.47
2022-12-11T23:45:14.912Z,42.17
2022-12-11T23:47:41.892Z,40.93
2022-12-11T23:50:08.956Z,37.57
2022-12-11T23:52:36.178Z,43.33
2022-12-11T23:55:02.820Z,45.17
2022-12-11T23:57:29.454Z,39.27
2022-12-11T23:59:56.190Z,40.07
